createdAt,value
2022-09-26T00:01:16.767Z,13.93
2022-09-26T00:03:46.650Z,14.55
2022-09-26T00:06:16.146Z,14.23
2022-09-26T00:08:44.726Z,14.85
2022-09-26T00:11:14.240Z,15.10
2022-09-26T00:13:42.444Z,15.48
2022-09-26T00:16:11.188Z,14.38
2022-09-26T00:18:39.785Z,14.65
2022-09-26T00:21:12.595Z,14.50
2022-09-26T00:23:41.885Z,14.43
2022-09-26T00:26:10.710Z,15.75
2022-09-26T00:28:38.299Z,14.30
2022-09-26T00:31:08.464Z,14.57
2022-09-26T00:33:35.878Z,15.40
2022-09-26T00:36:04.988Z,14.65
2022-09-26T00:38:32.874Z,14.87
2022-09-26T00:41:00.753Z,15.35
2022-09-26T00:43:47.787Z,15.73
2022-09-26T00:46:19.337Z,15.95
2022-09-26T00:48:49.780Z,17.23
2022-09-26T00:51:17.594Z,16.27
2022-09-26T00:53:49.233Z,16.30
2022-09-26T00:56:25.226Z,16.58
2022-09-26T00:58:56.440Z,17.02
2022-09-26T01:01:24.143Z,16.87
2022-09-26T01:03:52.081Z,16.60
2022-09-26T01:06:20.146Z,17.75
2022-09-26T01:08:59.747Z,18.12
2022-09-26T01:11:28.145Z,17.48
2022-09-26T01:13:57.098Z,18.23
2022-09-26T01:16:24.592Z,17.75
2022-09-26T01:18:54.030Z,16.55
2022-09-26T01:21:24.469Z,16.98
2022-09-26T01:24:12.044Z,16.52
2022-09-26T01:27:17.355Z,16.67
2022-09-26T01:30:03.557Z,16.43
2022-09-26T01:32:54.011Z,17.73
2022-09-26T01:35:35.715Z,17.08
2022-09-26T01:38:27.142Z,17.77
2022-09-26T01:41:28.218Z,17.17
2022-09-26T01:44:20.824Z,17.08
2022-09-26T01:47:06.120Z,16.87
2022-09-26T01:49:45.054Z,17.25
2022-09-26T01:52:27.771Z,17.52
2022-09-26T01:55:16.767Z,18.35
2022-09-26T01:58:02.093Z,18.30
2022-09-26T02:00:30.426Z,19.37
2022-09-26T02:02:59.649Z,19.40
2022-09-26T02:05:33.221Z,19.92
2022-09-26T02:08:06.708Z,19.03
2022-09-26T02:10:38.839Z,18.98
2022-09-26T02:15:47.537Z,18.12
2022-09-26T02:18:20.642Z,19.27
2022-09-26T02:20:55.749Z,20.12
2022-09-26T02:23:23.352Z,18.98
2022-09-26T02:25:52.612Z,20.02
2022-09-26T02:28:20.739Z,19.80
2022-09-26T02:30:49.817Z,19.02
2022-09-26T02:33:17.497Z,18.92
2022-09-26T02:35:57.539Z,18.75
2022-09-26T02:38:30.853Z,18.60
2022-09-26T02:41:14.028Z,18.42
2022-09-26T02:44:00.338Z,18.62
2022-09-26T02:46:39.691Z,18.77
2022-09-26T02:49:32.095Z,17.12
2022-09-26T02:52:14.536Z,18.02
2022-09-26T02:55:19.741Z,17.48
2022-09-26T02:58:03.889Z,17.00
2022-09-26T03:01:13.542Z,17.02
2022-09-26T03:03:53.405Z,17.00
2022-09-26T03:06:25.788Z,15.93
2022-09-26T03:08:54.204Z,16.25
2022-09-26T03:11:24.371Z,16.87
2022-09-26T03:13:53.844Z,17.37
2022-09-26T03:16:22.356Z,17.08
2022-09-26T03:18:54.371Z,16.85
2022-09-26T03:21:23.465Z,16.90
2022-09-26T03:23:51.254Z,17.58
2022-09-26T03:26:24.577Z,17.27
2022-09-26T03:28:56.307Z,17.45
2022-09-26T03:31:25.359Z,16.25
2022-09-26T03:33:54.133Z,17.67
2022-09-26T03:36:22.511Z,16.95
2022-09-26T03:38:50.106Z,18.08
2022-09-26T03:41:18.222Z,18.08
2022-09-26T03:43:47.523Z,18.27
2022-09-26T03:46:15.944Z,18.35
2022-09-26T03:48:43.725Z,18.17
2022-09-26T03:51:13.387Z,18.67
2022-09-26T03:53:43.301Z,19.17
2022-09-26T03:56:13.531Z,19.50
2022-09-26T03:58:43.737Z,17.65
2022-09-26T04:01:14.070Z,18.65
2022-09-26T04:03:49.328Z,19.10
2022-09-26T04:06:20.498Z,18.60
2022-09-26T04:08:49.961Z,20.00
2022-09-26T04:11:19.820Z,19.87
2022-09-26T04:13:53.193Z,20.08
2022-09-26T04:16:23.186Z,20.27
2022-09-26T04:18:56.663Z,19.83
2022-09-26T04:21:27.180Z,19.75
2022-09-26T04:23:55.890Z,20.15
2022-09-26T04:26:24.515Z,19.55
2022-09-26T04:29:12.209Z,18.65
2022-09-26T04:31:41.759Z,19.30
2022-09-26T04:34:11.409Z,19.12
2022-09-26T04:36:39.997Z,19.48
2022-09-26T04:39:07.633Z,18.67
2022-09-26T04:41:35.554Z,19.80
2022-09-26T04:44:03.050Z,19.33
2022-09-26T04:46:31.573Z,19.55
2022-09-26T04:49:00.468Z,19.17
2022-09-26T04:51:30.243Z,20.05
2022-09-26T04:53:59.165Z,19.65
2022-09-26T04:56:27.990Z,18.45
2022-09-26T04:58:56.761Z,19.40
2022-09-26T05:01:25.462Z,20.02
2022-09-26T05:03:57.637Z,19.02
2022-09-26T05:06:25.938Z,17.83
2022-09-26T05:08:54.764Z,18.37
2022-09-26T05:11:24.492Z,20.80
2022-09-26T05:13:53.873Z,21.58
2022-09-26T05:16:21.840Z,19.12
2022-09-26T05:18:51.913Z,20.58
2022-09-26T05:21:19.712Z,19.25
2022-09-26T05:24:05.646Z,20.10
2022-09-26T05:26:43.613Z,20.15
2022-09-26T05:29:12.131Z,19.02
2022-09-26T05:31:40.913Z,20.30
2022-09-26T05:34:13.150Z,20.58
2022-09-26T05:36:43.339Z,20.12
2022-09-26T05:39:30.674Z,20.02
2022-09-26T05:41:59.018Z,20.00
2022-09-26T05:44:27.477Z,20.50
2022-09-26T05:46:57.362Z,20.83
2022-09-26T05:49:26.350Z,20.83
2022-09-26T05:51:53.871Z,21.00
2022-09-26T05:54:21.877Z,24.92
2022-09-26T05:56:51.176Z,21.85
2022-09-26T05:59:20.403Z,22.00
2022-09-26T06:01:50.314Z,21.65
2022-09-26T06:04:21.190Z,21.02
2022-09-26T06:06:51.285Z,22.80
2022-09-26T06:09:18.998Z,21.23
2022-09-26T06:11:47.135Z,21.95
2022-09-26T06:14:14.553Z,23.00
2022-09-26T06:16:42.365Z,23.75
2022-09-26T06:19:09.847Z,23.58
2022-09-26T06:21:39.933Z,23.10
2022-09-26T06:24:10.315Z,21.70
2022-09-26T06:26:37.826Z,22.67
2022-09-26T06:29:05.506Z,21.58
2022-09-26T06:31:34.151Z,22.15
2022-09-26T06:34:05.584Z,20.58
2022-09-26T06:36:34.733Z,20.77
2022-09-26T06:39:02.562Z,20.98
2022-09-26T06:41:31.517Z,21.87
2022-09-26T06:43:58.893Z,20.77
2022-09-26T06:46:27.957Z,21.45
2022-09-26T06:48:55.704Z,20.52
2022-09-26T06:51:24.447Z,19.87
2022-09-26T06:53:53.267Z,20.62
2022-09-26T06:56:21.019Z,20.65
2022-09-26T06:58:49.615Z,20.80
2022-09-26T07:01:18.490Z,20.90
2022-09-26T07:03:47.106Z,21.40
2022-09-26T07:06:14.700Z,20.12
2022-09-26T07:09:03.041Z,19.90
2022-09-26T07:12:09.443Z,20.35
2022-09-26T07:14:19.095Z,19.37
2022-09-26T07:16:48.849Z,20.80
2022-09-26T07:19:17.058Z,20.80
2022-09-26T07:21:45.217Z,19.80
2022-09-26T07:24:15.865Z,19.15
2022-09-26T07:26:43.983Z,18.58
2022-09-26T07:29:12.434Z,18.10
2022-09-26T07:31:40.115Z,18.00
2022-09-26T07:34:08.770Z,17.67
2022-09-26T07:36:38.775Z,16.60
2022-09-26T07:39:06.545Z,15.32
2022-09-26T07:41:34.003Z,14.93
2022-09-26T07:44:58.963Z,14.02
2022-09-26T07:47:08.114Z,13.52
2022-09-26T07:49:54.295Z,13.45
2022-09-26T07:52:22.633Z,13.10
2022-09-26T07:54:51.356Z,13.77
2022-09-26T07:57:19.687Z,13.75
2022-09-26T07:59:50.459Z,13.35
2022-09-26T08:02:22.827Z,13.43
2022-09-26T08:04:50.743Z,12.75
2022-09-26T08:07:18.877Z,12.20
2022-09-26T08:09:47.149Z,12.20
2022-09-26T08:12:17.884Z,11.93
2022-09-26T08:14:54.989Z,12.07
2022-09-26T08:17:22.815Z,11.73
2022-09-26T08:19:50.205Z,12.60
2022-09-26T08:22:17.673Z,11.23
2022-09-26T08:24:50.634Z,12.02
2022-09-26T08:27:18.302Z,12.77
2022-09-26T08:29:48.528Z,12.50
2022-09-26T08:32:17.454Z,12.20
2022-09-26T08:34:45.022Z,12.52
2022-09-26T08:37:16.759Z,13.80
2022-09-26T08:39:44.246Z,13.13
2022-09-26T08:42:23.822Z,11.88
2022-09-26T08:45:26.948Z,11.85
2022-09-26T08:48:05.631Z,12.02
2022-09-26T08:50:39.866Z,11.48
2022-09-26T08:53:13.909Z,11.77
2022-09-26T08:55:46.678Z,11.93
2022-09-26T08:58:18.337Z,11.63
2022-09-26T09:00:48.901Z,11.15
2022-09-26T09:03:59.357Z,10.93
2022-09-26T09:06:28.299Z,10.98
2022-09-26T09:08:56.701Z,10.98
2022-09-26T09:11:34.064Z,10.85
2022-09-26T09:14:34.681Z,9.93
2022-09-26T09:17:08.946Z,9.82
2022-09-26T09:20:13.807Z,8.65
2022-09-26T09:22:50.554Z,9.13
2022-09-26T09:25:24.087Z,9.05
2022-09-26T09:28:32.262Z,9.55
2022-09-26T09:31:06.802Z,8.98
2022-09-26T09:33:45.482Z,8.70
2022-09-26T09:36:28.545Z,9.02
2022-09-26T09:39:03.821Z,8.15
2022-09-26T09:41:47.498Z,8.77
2022-09-26T09:44:34.288Z,9.18
2022-09-26T09:47:02.262Z,8.38
2022-09-26T09:49:30.621Z,9.02
2022-09-26T09:52:26.618Z,8.95
2022-09-26T09:55:06.763Z,8.25
2022-09-26T09:57:43.786Z,8.10
2022-09-26T10:00:18.281Z,7.60
2022-09-26T10:03:06.169Z,9.02
2022-09-26T10:05:45.611Z,8.30
2022-09-26T10:08:16.919Z,8.23
2022-09-26T10:11:07.914Z,7.32
2022-09-26T10:13:39.840Z,7.80
2022-09-26T10:16:15.442Z,7.22
2022-09-26T10:19:04.149Z,6.70
2022-09-26T10:21:40.839Z,6.25
2022-09-26T10:24:23.996Z,6.55
2022-09-26T10:26:54.472Z,6.55
2022-09-26T10:29:35.455Z,6.60
2022-09-26T10:32:03.130Z,6.20
2022-09-26T10:34:32.825Z,7.00
2022-09-26T10:37:23.919Z,5.90
2022-09-26T10:40:12.613Z,5.93
2022-09-26T10:42:41.112Z,6.65
2022-09-26T10:45:17.932Z,5.93
2022-09-26T10:47:50.904Z,5.40
2022-09-26T10:50:25.674Z,4.68
2022-09-26T10:53:10.227Z,4.30
2022-09-26T10:55:48.630Z,4.22
2022-09-26T10:58:25.163Z,3.85
2022-09-26T11:00:53.951Z,3.83
2022-09-26T11:03:34.237Z,5.05
2022-09-26T11:06:04.656Z,4.72
2022-09-26T11:08:33.838Z,5.15
2022-09-26T11:11:05.279Z,5.10
2022-09-26T11:13:50.133Z,5.15
2022-09-26T11:16:20.303Z,4.68
2022-09-26T11:19:04.385Z,4.72
2022-09-26T11:21:42.054Z,4.93
2022-09-26T11:24:37.281Z,4.47
2022-09-26T11:27:22.633Z,4.07
2022-09-26T11:30:09.432Z,3.45
2022-09-26T11:32:43.258Z,3.60
2022-09-26T11:35:46.148Z,4.12
2022-09-26T11:38:38.858Z,3.80
2022-09-26T11:41:43.809Z,3.85
2022-09-26T11:44:23.689Z,4.20
2022-09-26T11:47:10.872Z,4.22
2022-09-26T11:50:12.212Z,4.12
2022-09-26T11:52:49.468Z,4.25
2022-09-26T11:55:26.422Z,3.67
2022-09-26T11:58:03.377Z,3.53
2022-09-26T12:00:38.931Z,3.87
2022-09-26T12:03:26.424Z,3.95
2022-09-26T12:06:18.924Z,3.85
2022-09-26T12:09:31.525Z,3.90
2022-09-26T12:12:09.614Z,3.92
2022-09-26T12:15:02.259Z,3.80
2022-09-26T12:17:52.528Z,3.83
2022-09-26T12:20:55.328Z,3.50
2022-09-26T12:23:29.130Z,3.70
2022-09-26T12:26:15.048Z,4.15
2022-09-26T12:28:51.115Z,4.28
2022-09-26T12:31:42.678Z,4.80
2022-09-26T12:34:22.422Z,4.50
2022-09-26T12:37:02.045Z,3.83
2022-09-26T12:39:35.175Z,4.30
2022-09-26T12:42:17.987Z,5.37
2022-09-26T12:45:07.282Z,4.20
2022-09-26T12:47:50.802Z,4.60
2022-09-26T12:50:20.918Z,4.25
2022-09-26T12:52:54.450Z,4.93
2022-09-26T12:55:47.723Z,4.03
2022-09-26T12:58:55.416Z,4.50
2022-09-26T13:01:33.213Z,4.80
2022-09-26T13:04:06.930Z,4.53
2022-09-26T13:06:48.914Z,4.53
2022-09-26T13:09:58.197Z,4.47
2022-09-26T13:13:07.147Z,4.12
2022-09-26T13:16:13.300Z,3.90
2022-09-26T13:18:44.882Z,4.05
2022-09-26T13:21:42.064Z,4.05
2022-09-26T13:24:14.318Z,4.25
2022-09-26T13:26:46.842Z,4.47
2022-09-26T13:29:30.564Z,4.75
2022-09-26T13:32:16.388Z,4.62
2022-09-26T13:34:50.292Z,5.12
2022-09-26T13:37:28.973Z,5.03
2022-09-26T13:40:09.900Z,5.05
2022-09-26T13:42:44.338Z,5.50
2022-09-26T13:45:33.831Z,5.75
2022-09-26T13:48:16.704Z,5.57
2022-09-26T13:50:49.225Z,5.40
2022-09-26T13:53:34.023Z,5.22
2022-09-26T13:56:38.439Z,5.30
2022-09-26T13:59:12.062Z,6.00
2022-09-26T14:02:00.462Z,5.47
2022-09-26T14:04:35.988Z,5.45
2022-09-26T14:07:29.666Z,5.32
2022-09-26T14:10:02.988Z,5.60
2022-09-26T14:12:34.038Z,5.55
2022-09-26T14:15:24.422Z,5.12
2022-09-26T14:17:51.739Z,5.50
2022-09-26T14:20:24.110Z,5.50
2022-09-26T14:22:56.870Z,4.82
2022-09-26T14:25:46.507Z,4.55
2022-09-26T14:28:17.240Z,5.12
2022-09-26T14:31:21.896Z,5.12
2022-09-26T14:33:57.314Z,5.35
2022-09-26T14:36:28.948Z,4.80
2022-09-26T14:38:56.771Z,4.32
2022-09-26T14:41:28.642Z,4.25
2022-09-26T14:44:02.814Z,3.87
2022-09-26T14:46:33.244Z,4.57
2022-09-26T14:49:06.315Z,4.57
2022-09-26T14:51:39.251Z,4.20
2022-09-26T14:54:37.321Z,4.30
2022-09-26T14:57:08.142Z,4.22
2022-09-26T14:59:35.649Z,4.12
2022-09-26T15:02:15.331Z,4.12
2022-09-26T15:04:44.987Z,4.20
2022-09-26T15:07:23.024Z,4.12
2022-09-26T15:10:04.752Z,4.07
2022-09-26T15:12:44.118Z,4.10
2022-09-26T15:15:38.848Z,4.12
2022-09-26T15:18:39.510Z,4.05
2022-09-26T15:21:18.047Z,4.12
2022-09-26T15:23:49.350Z,3.97
2022-09-26T15:26:23.498Z,4.25
2022-09-26T15:28:52.471Z,4.20
2022-09-26T15:31:28.518Z,4.00
2022-09-26T15:34:00.380Z,3.70
2022-09-26T15:36:30.040Z,3.53
2022-09-26T15:38:58.339Z,3.60
2022-09-26T15:41:44.014Z,3.45
2022-09-26T15:44:23.776Z,3.65
2022-09-26T15:46:51.557Z,3.60
2022-09-26T15:49:23.012Z,4.00
2022-09-26T15:51:53.651Z,3.92
2022-09-26T15:54:29.807Z,3.55
2022-09-26T15:57:00.819Z,3.37
2022-09-26T15:59:32.360Z,3.37
2022-09-26T16:02:00.465Z,3.90
2022-09-26T16:04:29.712Z,3.95
2022-09-26T16:07:04.662Z,9.07
2022-09-26T16:09:40.625Z,11.90
2022-09-26T16:12:17.198Z,9.98
2022-09-26T16:15:06.028Z,6.40
2022-09-26T16:17:49.248Z,6.70
2022-09-26T16:20:17.049Z,5.10
2022-09-26T16:23:00.371Z,4.43
2022-09-26T16:25:40.392Z,4.43
2022-09-26T16:28:10.144Z,4.93
2022-09-26T16:30:46.569Z,4.45
2022-09-26T16:33:30.786Z,4.93
2022-09-26T16:36:10.393Z,5.40
2022-09-26T16:38:37.845Z,6.40
2022-09-26T16:41:36.301Z,4.75
2022-09-26T16:44:25.186Z,4.60
2022-09-26T16:46:55.973Z,4.97
2022-09-26T16:49:46.500Z,4.47
2022-09-26T16:52:26.671Z,4.57
2022-09-26T16:54:58.885Z,4.53
2022-09-26T16:57:29.384Z,5.00
2022-09-26T17:00:37.278Z,4.80
2022-09-26T17:03:20.928Z,5.18
2022-09-26T17:05:48.945Z,7.05
2022-09-26T17:08:17.755Z,6.97
2022-09-26T17:10:46.171Z,7.87
2022-09-26T17:13:22.836Z,7.82
2022-09-26T17:15:55.729Z,7.78
2022-09-26T17:18:29.492Z,7.03
2022-09-26T17:20:59.132Z,7.82
2022-09-26T17:23:39.811Z,7.22
2022-09-26T17:26:12.624Z,7.85
2022-09-26T17:28:42.507Z,7.30
2022-09-26T17:31:14.704Z,6.70
2022-09-26T17:33:42.603Z,7.00
2022-09-26T17:36:23.178Z,6.28
2022-09-26T17:38:50.566Z,6.50
2022-09-26T17:41:18.211Z,6.82
2022-09-26T17:43:45.553Z,6.37
2022-09-26T17:46:15.858Z,6.40
2022-09-26T17:48:43.991Z,7.12
2022-09-26T17:51:14.770Z,7.72
2022-09-26T17:53:50.555Z,7.53
2022-09-26T17:56:19.517Z,7.80
2022-09-26T17:58:48.193Z,7.85
2022-09-26T18:01:25.433Z,7.25
2022-09-26T18:03:55.813Z,7.32
2022-09-26T18:06:27.511Z,7.72
2022-09-26T18:08:59.628Z,9.50
2022-09-26T18:11:27.472Z,8.77
2022-09-26T18:13:55.644Z,9.05
2022-09-26T18:16:24.034Z,9.63
2022-09-26T18:18:51.524Z,11.05
2022-09-26T18:21:20.228Z,11.07
2022-09-26T18:23:55.807Z,12.27
2022-09-26T18:26:33.390Z,12.13
2022-09-26T18:29:06.641Z,11.82
2022-09-26T18:31:37.059Z,11.57
2022-09-26T18:34:04.563Z,10.68
2022-09-26T18:36:36.022Z,10.68
2022-09-26T18:39:04.132Z,10.77
2022-09-26T18:41:32.146Z,13.15
2022-09-26T18:44:00.678Z,14.00
2022-09-26T18:46:29.590Z,13.18
2022-09-26T18:48:58.494Z,11.88
2022-09-26T18:51:27.021Z,11.82
2022-09-26T18:53:55.013Z,13.02
2022-09-26T18:56:41.223Z,11.98
2022-09-26T18:59:10.563Z,13.55
2022-09-26T19:01:41.771Z,13.50
2022-09-26T19:04:28.545Z,13.70
2022-09-26T19:07:02.040Z,13.80
2022-09-26T19:09:35.421Z,13.40
2022-09-26T19:12:04.166Z,11.85
2022-09-26T19:14:32.282Z,12.18
2022-09-26T19:17:00.139Z,11.75
2022-09-26T19:19:32.689Z,12.40
2022-09-26T19:22:08.000Z,13.62
2022-09-26T19:24:41.716Z,13.52
2022-09-26T19:27:19.923Z,14.27
2022-09-26T19:30:21.142Z,14.68
2022-09-26T19:32:50.677Z,37.55
2022-09-26T19:35:24.945Z,18.05
2022-09-26T19:37:52.871Z,21.87
2022-09-26T19:40:21.327Z,18.30
2022-09-26T19:42:48.935Z,17.92
2022-09-26T19:45:18.364Z,14.25
2022-09-26T19:47:47.887Z,13.05
2022-09-26T19:50:20.707Z,13.25
2022-09-26T19:52:49.403Z,10.95
2022-09-26T19:55:25.114Z,10.73
2022-09-26T19:57:53.662Z,10.18
2022-09-26T20:00:21.087Z,10.63
2022-09-26T20:02:51.274Z,10.02
2022-09-26T20:05:22.803Z,8.70
2022-09-26T20:07:50.922Z,8.55
2022-09-26T20:10:20.386Z,9.15
2022-09-26T20:12:48.623Z,8.52
2022-09-26T20:15:20.154Z,9.27
2022-09-26T20:17:47.890Z,9.13
2022-09-26T20:20:23.683Z,9.10
2022-09-26T20:22:53.190Z,10.07
2022-09-26T20:25:27.303Z,9.38
2022-09-26T20:27:56.195Z,9.00
2022-09-26T20:30:43.344Z,16.42
2022-09-26T20:33:14.124Z,16.67
2022-09-26T20:35:44.928Z,15.45
2022-09-26T20:38:25.270Z,15.88
2022-09-26T20:41:15.641Z,14.20
2022-09-26T20:43:47.683Z,13.90
2022-09-26T20:46:15.490Z,12.20
2022-09-26T20:48:45.642Z,11.75
2022-09-26T20:51:19.777Z,11.60
2022-09-26T20:53:47.435Z,11.12
2022-09-26T20:56:20.616Z,10.55
2022-09-26T20:58:48.649Z,10.30
2022-09-26T21:01:17.776Z,8.85
2022-09-26T21:03:50.024Z,8.85
2022-09-26T21:06:20.651Z,8.50
2022-09-26T21:08:48.546Z,8.95
2022-09-26T21:11:18.671Z,8.88
2022-09-26T21:13:46.448Z,8.52
2022-09-26T21:16:15.582Z,8.65
2022-09-26T21:18:43.946Z,8.68
2022-09-26T21:21:37.560Z,8.57
2022-09-26T21:24:06.600Z,8.55
2022-09-26T21:26:34.237Z,8.52
2022-09-26T21:29:01.586Z,8.73
2022-09-26T21:31:31.506Z,9.60
2022-09-26T21:34:00.136Z,10.38
2022-09-26T21:36:34.904Z,10.30
2022-09-26T21:39:03.115Z,10.38
2022-09-26T21:41:30.592Z,10.73
2022-09-26T21:44:01.812Z,11.20
2022-09-26T21:46:29.520Z,10.60
2022-09-26T21:48:56.975Z,10.65
2022-09-26T21:51:26.909Z,11.40
2022-09-26T21:53:58.351Z,10.45
2022-09-26T21:56:30.423Z,10.15
2022-09-26T21:58:58.452Z,10.50
2022-09-26T22:01:25.882Z,10.27
2022-09-26T22:03:53.670Z,10.30
2022-09-26T22:06:21.187Z,11.50
2022-09-26T22:08:48.684Z,11.52
2022-09-26T22:11:16.290Z,10.60
2022-09-26T22:13:43.623Z,11.30
2022-09-26T22:16:19.198Z,10.98
2022-09-26T22:18:46.825Z,11.65
2022-09-26T22:21:14.188Z,10.90
2022-09-26T22:23:41.622Z,11.35
2022-09-26T22:26:09.411Z,11.18
2022-09-26T22:28:36.743Z,10.38
2022-09-26T22:31:05.115Z,10.60
2022-09-26T22:33:33.254Z,10.32
2022-09-26T22:36:01.016Z,10.18
2022-09-26T22:38:28.434Z,9.82
2022-09-26T22:40:57.593Z,9.57
2022-09-26T22:43:25.369Z,9.18
2022-09-26T22:45:52.917Z,9.95
2022-09-26T22:48:20.640Z,8.85
2022-09-26T22:50:48.137Z,8.77
2022-09-26T22:53:15.493Z,9.70
2022-09-26T22:55:52.332Z,9.02
2022-09-26T22:58:19.679Z,9.77
2022-09-26T23:00:48.044Z,8.98
2022-09-26T23:03:15.439Z,9.10
2022-09-26T23:05:42.752Z,9.10
2022-09-26T23:08:10.383Z,9.27
2022-09-26T23:10:37.773Z,8.30
2022-09-26T23:13:05.169Z,8.98
2022-09-26T23:15:32.820Z,8.95
2022-09-26T23:18:01.782Z,9.10
2022-09-26T23:20:29.295Z,8.95
2022-09-26T23:22:56.900Z,8.90
2022-09-26T23:25:24.264Z,8.65
2022-09-26T23:27:51.601Z,8.18
2022-09-26T23:30:19.271Z,8.90
2022-09-26T23:32:46.613Z,8.70
2022-09-26T23:35:14.803Z,8.70
2022-09-26T23:37:42.474Z,8.90
2022-09-26T23:40:10.115Z,8.52
2022-09-26T23:42:37.449Z,9.38
2022-09-26T23:45:05.503Z,8.25
2022-09-26T23:47:32.891Z,8.40
2022-09-26T23:50:00.279Z,8.75
2022-09-26T23:52:27.902Z,8.98
2022-09-26T23:54:55.233Z,8.93
2022-09-26T23:57:23.257Z,7.93
2022-09-26T23:59:50.865Z,8.43
